Damariscotta, Maine
Current Conditions -  °F | °C
As of 12:53 PM on Monday 22 Dec 2014 (Local Time) from KIWI Reporting Station
Few Clouds Few Clouds  
Wind Chill: 41°   Ceiling: Unl
Heat Index: 41°   Visibility: 10mi
Dew Point: 31°   Wind: 0mph
Humidity: 67%   Direction: NA
Pressure: 30.39"   Gusts: NA
Location:  44.03°N, 69.52°W
Report Text: KIWI 221753Z AUTO 00000KT 10SM FEW055 05/M01 A3039 RMK AO2 SLP289 T00501006 10050 21022 56021
Loading
Personal Weather Stations






























Interactive Weather Map New forecast layout! Learn more

10-Day Weather Forecast

Advertisements
Track Severe Weather on mobile